createdAt,value
2023-05-12T00:00:22.004Z,62.55
2023-05-12T00:03:12.782Z,62.42
2023-05-12T00:05:43.455Z,62.29
2023-05-12T00:08:13.705Z,62.00
2023-05-12T00:10:44.005Z,62.03
2023-05-12T00:13:15.090Z,61.78
2023-05-12T00:15:45.943Z,61.65
2023-05-12T00:18:16.342Z,61.53
2023-05-12T00:20:46.677Z,61.27
2023-05-12T00:23:17.407Z,61.09
2023-05-12T00:25:48.138Z,60.88
2023-05-12T00:28:19.417Z,60.81
2023-05-12T00:30:50.020Z,60.63
2023-05-12T00:33:20.164Z,60.61
2023-05-12T00:35:50.668Z,60.75
2023-05-12T00:38:20.934Z,60.80
2023-05-12T00:40:51.277Z,60.88
2023-05-12T00:43:21.360Z,60.85
2023-05-12T00:45:51.751Z,60.64
2023-05-12T00:48:22.399Z,60.90
2023-05-12T00:50:52.872Z,60.90
2023-05-12T00:53:23.358Z,60.98
2023-05-12T00:55:54.230Z,60.92
2023-05-12T00:58:24.518Z,60.96
2023-05-12T01:00:55.329Z,61.05
2023-05-12T01:03:26.034Z,61.00
2023-05-12T01:05:59.535Z,61.01
2023-05-12T01:08:30.317Z,60.95
2023-05-12T01:11:00.637Z,60.93
2023-05-12T01:13:31.591Z,60.85
2023-05-12T01:16:04.184Z,60.99
2023-05-12T01:18:35.827Z,61.03
2023-05-12T01:21:06.890Z,60.97
2023-05-12T01:23:41.026Z,60.85
2023-05-12T01:26:11.769Z,60.81
2023-05-12T01:28:42.905Z,60.73
2023-05-12T01:31:13.421Z,60.75
2023-05-12T01:33:43.871Z,60.80
2023-05-12T01:36:14.153Z,60.87
2023-05-12T01:38:44.733Z,61.03
2023-05-12T01:41:15.092Z,61.09
2023-05-12T01:43:45.954Z,61.11
2023-05-12T01:46:16.801Z,61.19
2023-05-12T01:48:47.796Z,61.32
2023-05-12T01:51:18.907Z,61.03
2023-05-12T01:53:49.315Z,61.12
2023-05-12T01:56:21.538Z,60.93
2023-05-12T01:58:51.970Z,60.75
2023-05-12T02:01:24.837Z,60.59
2023-05-12T02:03:56.149Z,60.74
2023-05-12T02:06:26.809Z,60.79
2023-05-12T02:08:57.982Z,60.71
2023-05-12T02:11:30.693Z,60.48
2023-05-12T02:14:01.271Z,60.62
2023-05-12T02:16:36.588Z,60.83
2023-05-12T02:19:08.452Z,60.71
2023-05-12T02:21:39.630Z,60.54
2023-05-12T02:24:14.224Z,60.60
2023-05-12T02:26:45.187Z,60.60
2023-05-12T02:29:15.745Z,60.51
2023-05-12T02:31:46.535Z,60.51
2023-05-12T02:34:17.490Z,60.66
2023-05-12T02:36:47.836Z,60.55
2023-05-12T02:39:18.238Z,60.47
2023-05-12T02:41:49.252Z,60.60
2023-05-12T02:44:22.344Z,60.60
2023-05-12T02:46:53.771Z,60.73
2023-05-12T02:49:24.751Z,60.86
2023-05-12T02:51:55.567Z,60.84
2023-05-12T02:54:26.370Z,61.00
2023-05-12T02:56:58.620Z,61.10
2023-05-12T02:59:30.307Z,61.02
2023-05-12T03:02:01.290Z,61.00
2023-05-12T03:04:33.155Z,60.94
2023-05-12T03:07:03.749Z,60.93
2023-05-12T03:09:34.198Z,60.93
2023-05-12T03:12:05.239Z,60.98
2023-05-12T03:14:35.473Z,61.09
2023-05-12T03:17:06.907Z,61.09
2023-05-12T03:19:37.470Z,61.15
2023-05-12T03:22:07.958Z,61.25
2023-05-12T03:24:38.067Z,61.55
2023-05-12T03:27:09.757Z,61.56
2023-05-12T03:29:40.394Z,61.34
2023-05-12T03:32:11.120Z,61.27
2023-05-12T03:34:41.733Z,61.16
2023-05-12T03:37:12.420Z,61.00
2023-05-12T03:39:43.357Z,61.03
2023-05-12T03:42:15.918Z,61.02
2023-05-12T03:44:46.409Z,60.82
2023-05-12T03:47:16.703Z,60.65
2023-05-12T03:49:47.212Z,60.60
2023-05-12T03:52:17.628Z,60.60
2023-05-12T03:54:47.945Z,60.72
2023-05-12T03:57:18.333Z,60.94
2023-05-12T03:59:48.800Z,60.86
2023-05-12T04:02:19.112Z,61.06
2023-05-12T04:04:49.833Z,61.25
2023-05-12T04:07:20.523Z,61.39
2023-05-12T04:09:52.032Z,61.52
2023-05-12T04:12:22.440Z,61.78
2023-05-12T04:14:53.504Z,61.58
2023-05-12T04:17:27.099Z,61.59
2023-05-12T04:19:58.077Z,61.53
2023-05-12T04:22:28.440Z,61.77
2023-05-12T04:24:59.497Z,61.93
2023-05-12T04:27:29.991Z,62.02
2023-05-12T04:30:00.450Z,62.10
2023-05-12T04:32:31.560Z,62.23
2023-05-12T04:35:02.174Z,62.24
2023-05-12T04:37:32.495Z,62.46
2023-05-12T04:40:04.420Z,62.72
2023-05-12T04:42:34.886Z,62.57
2023-05-12T04:45:06.988Z,62.60
2023-05-12T04:47:37.396Z,62.68
2023-05-12T04:50:10.834Z,62.91
2023-05-12T04:52:41.628Z,62.80
2023-05-12T04:55:15.805Z,62.59
2023-05-12T04:57:49.291Z,62.58
2023-05-12T05:00:22.323Z,62.73
2023-05-12T05:02:53.038Z,63.07
2023-05-12T05:05:23.664Z,63.52
2023-05-12T05:07:54.059Z,63.72
2023-05-12T05:10:25.284Z,64.05
2023-05-12T05:12:55.827Z,64.48
2023-05-12T05:15:26.706Z,64.85
2023-05-12T05:17:57.533Z,64.96
2023-05-12T05:20:29.322Z,65.21
2023-05-12T05:23:02.180Z,65.40
2023-05-12T05:25:32.889Z,65.67
2023-05-12T05:28:03.099Z,65.95
2023-05-12T05:30:33.594Z,65.87
2023-05-12T05:33:04.242Z,65.93
2023-05-12T05:35:34.523Z,66.00
2023-05-12T05:38:06.052Z,66.03
2023-05-12T05:40:49.291Z,66.06
2023-05-12T05:43:22.300Z,66.22
2023-05-12T05:45:55.579Z,66.41
2023-05-12T05:48:27.791Z,66.60
2023-05-12T05:50:58.173Z,66.43
2023-05-12T05:53:29.145Z,66.65
2023-05-12T05:55:59.617Z,66.83
2023-05-12T05:58:31.024Z,66.99
2023-05-12T06:01:10.008Z,67.29
2023-05-12T06:03:40.435Z,67.40
2023-05-12T06:06:10.958Z,67.58
2023-05-12T06:08:43.124Z,67.51
2023-05-12T06:11:15.902Z,67.59
2023-05-12T06:13:47.740Z,67.55
2023-05-12T06:16:18.721Z,67.58
2023-05-12T06:18:49.856Z,67.27
2023-05-12T06:21:20.363Z,67.02
2023-05-12T06:23:51.575Z,67.35
2023-05-12T06:26:23.610Z,67.40
2023-05-12T06:28:54.040Z,67.61
2023-05-12T06:31:24.702Z,67.91
2023-05-12T06:33:55.704Z,67.43
2023-05-12T06:36:26.268Z,67.32
2023-05-12T06:38:59.296Z,67.06
2023-05-12T06:41:29.872Z,67.01
2023-05-12T06:44:02.143Z,67.08
2023-05-12T06:46:33.072Z,66.99
2023-05-12T06:49:07.116Z,66.48
2023-05-12T06:51:37.925Z,66.36
2023-05-12T06:54:08.960Z,66.40
2023-05-12T06:56:41.106Z,66.54
2023-05-12T06:59:12.328Z,66.73
2023-05-12T07:01:43.388Z,66.32
2023-05-12T07:04:14.067Z,66.37
2023-05-12T07:06:45.037Z,66.30
2023-05-12T07:09:15.205Z,66.37
2023-05-12T07:11:49.858Z,66.50
2023-05-12T07:14:20.594Z,66.44
2023-05-12T07:16:51.471Z,66.17
2023-05-12T07:19:22.246Z,66.48
2023-05-12T07:21:53.586Z,66.31
2023-05-12T07:24:23.928Z,66.38
2023-05-12T07:26:54.498Z,66.63
2023-05-12T07:29:29.834Z,66.69
2023-05-12T07:32:00.183Z,66.74
2023-05-12T07:34:30.533Z,66.72
2023-05-12T07:37:03.829Z,66.78
2023-05-12T07:39:35.325Z,66.82
2023-05-12T07:42:07.314Z,67.11
2023-05-12T07:44:38.911Z,67.04
2023-05-12T07:47:09.497Z,67.16
2023-05-12T07:49:39.941Z,66.99
2023-05-12T07:52:10.471Z,67.05
2023-05-12T07:54:41.280Z,67.08
2023-05-12T07:57:12.071Z,67.11
2023-05-12T07:59:42.756Z,67.28
2023-05-12T08:02:13.470Z,67.40
2023-05-12T08:04:44.571Z,67.37
2023-05-12T08:07:15.450Z,67.38
2023-05-12T08:09:46.119Z,67.25
2023-05-12T08:12:16.811Z,67.08
2023-05-12T08:14:47.146Z,67.02
2023-05-12T08:17:18.596Z,67.20
2023-05-12T08:19:49.208Z,67.13
2023-05-12T08:22:21.405Z,67.27
2023-05-12T08:24:53.395Z,67.46
2023-05-12T08:27:27.616Z,67.78
2023-05-12T08:30:01.419Z,67.73
2023-05-12T08:32:41.016Z,67.96
2023-05-12T08:35:16.191Z,67.99
2023-05-12T08:37:50.589Z,68.23
2023-05-12T08:40:26.273Z,68.30
2023-05-12T08:43:06.490Z,68.50
2023-05-12T08:45:39.794Z,68.53
2023-05-12T08:48:11.672Z,68.61
2023-05-12T08:50:44.703Z,68.72
2023-05-12T08:53:23.813Z,68.84
2023-05-12T08:59:42.276Z,69.47
2023-05-12T09:02:53.991Z,69.26
2023-05-12T09:05:34.896Z,69.27
2023-05-12T09:08:13.970Z,69.35
2023-05-12T09:10:52.127Z,69.50
2023-05-12T09:13:49.782Z,69.34
2023-05-12T09:16:25.165Z,69.39
2023-05-12T09:18:57.253Z,69.40
2023-05-12T09:21:32.048Z,69.51
2023-05-12T09:24:10.366Z,69.61
2023-05-12T09:26:52.891Z,69.75
2023-05-12T09:29:37.506Z,69.77
2023-05-12T09:32:40.613Z,69.89
2023-05-12T09:35:24.112Z,70.31
2023-05-12T09:38:01.682Z,70.50
2023-05-12T09:40:40.409Z,70.77
2023-05-12T09:43:22.892Z,70.74
2023-05-12T09:45:57.643Z,70.92
2023-05-12T09:48:29.033Z,70.84
2023-05-12T09:51:03.191Z,70.74
2023-05-12T09:53:34.658Z,70.68
2023-05-12T09:56:12.776Z,70.64
2023-05-12T09:58:51.667Z,70.42
2023-05-12T10:01:24.234Z,70.33
2023-05-12T10:03:59.343Z,69.92
2023-05-12T10:06:40.967Z,69.76
2023-05-12T10:09:47.894Z,70.03
2023-05-12T10:12:19.337Z,70.24
2023-05-12T10:14:51.444Z,70.45
2023-05-12T10:17:23.735Z,70.39
2023-05-12T10:19:54.795Z,70.29
2023-05-12T10:22:33.828Z,70.30
2023-05-12T10:25:12.050Z,70.52
2023-05-12T10:27:48.461Z,70.55
2023-05-12T10:30:20.466Z,70.56
2023-05-12T10:32:53.646Z,70.42
2023-05-12T10:35:49.755Z,70.61
2023-05-12T10:38:23.508Z,71.01
2023-05-12T10:41:04.690Z,71.09
2023-05-12T10:43:42.834Z,71.06
2023-05-12T10:46:23.325Z,71.04
2023-05-12T10:49:00.537Z,71.33
2023-05-12T10:51:35.979Z,71.47
2023-05-12T10:54:09.243Z,71.57
2023-05-12T10:56:45.696Z,71.29
2023-05-12T10:59:30.811Z,71.34
2023-05-12T11:02:05.438Z,71.62
2023-05-12T11:05:01.102Z,71.91
2023-05-12T11:07:37.400Z,72.08
2023-05-12T11:10:13.500Z,72.17
2023-05-12T11:12:46.661Z,72.23
2023-05-12T11:15:18.871Z,71.97
2023-05-12T11:17:54.849Z,71.94
2023-05-12T11:20:27.573Z,72.24
2023-05-12T11:23:01.672Z,72.15
2023-05-12T11:25:35.539Z,72.03
2023-05-12T11:28:07.453Z,71.85
2023-05-12T11:31:01.016Z,71.67
2023-05-12T11:33:38.101Z,71.73
2023-05-12T11:36:12.685Z,71.43
2023-05-12T11:38:52.732Z,71.33
2023-05-12T11:41:27.776Z,71.48
2023-05-12T11:43:58.526Z,71.34
2023-05-12T11:46:32.236Z,71.38
2023-05-12T11:49:04.013Z,71.42
2023-05-12T11:51:34.668Z,71.37
2023-05-12T11:54:05.517Z,71.20
2023-05-12T11:56:36.215Z,71.57
2023-05-12T11:59:07.310Z,71.75
2023-05-12T12:01:47.537Z,71.95
2023-05-12T12:04:19.758Z,72.05
2023-05-12T12:06:54.017Z,71.86
2023-05-12T12:09:32.399Z,71.97
2023-05-12T12:12:08.143Z,72.01
2023-05-12T12:14:43.040Z,71.93
2023-05-12T12:17:15.059Z,71.73
2023-05-12T12:19:49.448Z,71.63
2023-05-12T12:22:21.945Z,71.55
2023-05-12T12:24:52.215Z,71.53
2023-05-12T12:27:22.589Z,71.40
2023-05-12T12:29:55.673Z,71.44
2023-05-12T12:32:31.682Z,71.35
2023-05-12T12:35:06.258Z,71.07
2023-05-12T12:37:37.392Z,70.97
2023-05-12T12:40:09.994Z,70.47
2023-05-12T12:42:41.058Z,70.19
2023-05-12T12:45:13.438Z,70.20
2023-05-12T12:47:46.156Z,70.27
2023-05-12T12:50:16.960Z,70.35
2023-05-12T12:52:49.142Z,70.45
2023-05-12T12:55:20.772Z,70.77
2023-05-12T12:57:51.407Z,70.86
2023-05-12T13:00:23.963Z,71.37
2023-05-12T13:02:54.648Z,71.63
2023-05-12T13:05:28.029Z,72.06
2023-05-12T13:07:58.306Z,72.29
2023-05-12T13:10:33.814Z,72.51
2023-05-12T13:13:05.089Z,72.77
2023-05-12T13:15:35.764Z,72.98
2023-05-12T13:18:08.789Z,73.26
2023-05-12T13:20:39.295Z,73.32
2023-05-12T13:23:10.644Z,73.45
2023-05-12T13:25:44.734Z,73.53
2023-05-12T13:28:20.438Z,73.94
2023-05-12T13:31:08.792Z,74.24
2023-05-12T13:33:45.157Z,74.68
2023-05-12T13:36:22.155Z,75.22
2023-05-12T13:39:06.475Z,75.58
2023-05-12T13:41:45.900Z,75.57
2023-05-12T13:44:24.731Z,75.37
2023-05-12T13:46:56.485Z,75.47
2023-05-12T13:49:29.966Z,74.95
2023-05-12T13:52:04.319Z,74.65
2023-05-12T13:54:38.309Z,74.75
2023-05-12T13:57:13.039Z,74.64
2023-05-12T13:59:54.290Z,74.65
2023-05-12T14:02:26.776Z,74.69
2023-05-12T14:05:02.039Z,74.52
2023-05-12T14:07:32.747Z,74.45
2023-05-12T14:10:07.151Z,74.22
2023-05-12T14:12:41.069Z,74.15
2023-05-12T14:15:26.570Z,74.20
2023-05-12T14:18:07.395Z,74.22
2023-05-12T14:21:03.632Z,74.10
2023-05-12T14:23:36.387Z,74.09
2023-05-12T14:26:12.529Z,73.91
2023-05-12T14:28:45.904Z,73.72
2023-05-12T14:31:18.981Z,73.52
2023-05-12T14:33:50.931Z,73.43
2023-05-12T14:36:54.088Z,72.99
2023-05-12T14:39:48.333Z,72.80
2023-05-12T14:42:29.451Z,72.49
2023-05-12T14:45:34.366Z,72.46
2023-05-12T14:48:15.087Z,72.57
2023-05-12T14:50:56.797Z,72.67
2023-05-12T14:53:30.264Z,72.57
2023-05-12T14:56:05.983Z,72.68
2023-05-12T14:58:36.780Z,72.50
2023-05-12T15:01:09.340Z,72.58
2023-05-12T15:03:43.112Z,72.50
2023-05-12T15:06:16.548Z,72.55
2023-05-12T15:08:47.449Z,72.44
2023-05-12T15:11:22.512Z,72.51
2023-05-12T15:13:55.996Z,72.20
2023-05-12T15:19:15.084Z,72.37
2023-05-12T15:22:00.465Z,72.35
2023-05-12T15:24:34.864Z,72.24
2023-05-12T15:27:07.816Z,72.46
2023-05-12T15:29:41.567Z,72.12
2023-05-12T15:32:14.496Z,72.07
2023-05-12T15:34:45.051Z,72.33
2023-05-12T15:37:15.830Z,72.33
2023-05-12T15:39:53.416Z,72.54
2023-05-12T15:42:32.358Z,72.44
2023-05-12T15:45:10.782Z,72.74
2023-05-12T15:47:41.430Z,72.93
2023-05-12T15:50:20.359Z,72.85
2023-05-12T15:52:54.474Z,72.81
2023-05-12T15:55:30.321Z,72.94
2023-05-12T15:58:01.305Z,72.86
2023-05-12T16:00:31.861Z,73.02
2023-05-12T16:03:02.959Z,73.32
2023-05-12T16:05:37.483Z,73.39
2023-05-12T16:08:08.247Z,73.20
2023-05-12T16:10:38.610Z,73.16
2023-05-12T16:13:09.635Z,72.74
2023-05-12T16:15:40.085Z,72.68
2023-05-12T16:18:11.514Z,72.81
2023-05-12T16:20:43.249Z,72.54
2023-05-12T16:23:15.443Z,72.51
2023-05-12T16:25:46.523Z,72.80
2023-05-12T16:28:17.158Z,73.03
2023-05-12T16:30:48.899Z,73.05
2023-05-12T16:33:19.510Z,72.96
2023-05-12T16:35:50.498Z,72.89
2023-05-12T16:38:20.911Z,72.90
2023-05-12T16:40:51.859Z,72.78
2023-05-12T16:43:22.856Z,72.69
2023-05-12T16:46:01.606Z,72.56
2023-05-12T16:48:34.870Z,72.61
2023-05-12T16:51:07.958Z,72.58
2023-05-12T16:53:39.272Z,72.40
2023-05-12T16:56:10.046Z,72.58
2023-05-12T16:58:42.234Z,72.61
2023-05-12T17:01:12.820Z,72.42
2023-05-12T17:03:43.742Z,72.48
2023-05-12T17:06:14.907Z,72.38
2023-05-12T17:08:45.435Z,72.38
2023-05-12T17:11:21.777Z,72.37
2023-05-12T17:13:53.628Z,72.42
2023-05-12T17:16:24.282Z,72.72
2023-05-12T17:21:29.606Z,72.98
2023-05-12T17:24:00.581Z,73.06
2023-05-12T17:26:31.138Z,73.41
2023-05-12T17:29:02.264Z,73.44
2023-05-12T17:31:34.158Z,73.52
2023-05-12T17:34:04.642Z,73.54
2023-05-12T17:36:40.241Z,73.70
2023-05-12T17:39:13.903Z,73.78
2023-05-12T17:41:44.976Z,73.84
2023-05-12T17:44:15.381Z,73.88
2023-05-12T17:46:49.298Z,73.86
2023-05-12T17:49:25.162Z,73.70
2023-05-12T17:51:58.924Z,73.72
2023-05-12T17:54:36.065Z,73.62
2023-05-12T17:57:07.421Z,73.91
2023-05-12T17:59:40.037Z,74.00
2023-05-12T18:02:13.779Z,74.10
2023-05-12T18:04:44.779Z,73.91
2023-05-12T18:07:15.869Z,73.82
2023-05-12T18:09:49.075Z,73.57
2023-05-12T18:12:22.166Z,73.37
2023-05-12T18:14:55.348Z,73.31
2023-05-12T18:17:27.813Z,73.10
2023-05-12T18:20:02.176Z,73.08
2023-05-12T18:22:34.165Z,73.21
2023-05-12T18:25:04.791Z,73.42
2023-05-12T18:27:38.779Z,73.47
2023-05-12T18:30:11.598Z,73.55
2023-05-12T18:32:47.455Z,73.76
2023-05-12T18:35:26.790Z,73.98
2023-05-12T18:38:00.657Z,73.94
2023-05-12T18:40:31.705Z,73.91
2023-05-12T18:43:04.053Z,73.83
2023-05-12T18:45:35.894Z,73.73
2023-05-12T18:48:10.794Z,73.65
2023-05-12T18:50:41.659Z,73.40
2023-05-12T18:53:12.188Z,73.36
2023-05-12T18:55:43.946Z,73.32
2023-05-12T18:58:20.311Z,73.47
2023-05-12T19:00:50.839Z,73.47
2023-05-12T19:03:21.647Z,73.62
2023-05-12T19:05:52.540Z,73.54
2023-05-12T19:08:24.824Z,73.58
2023-05-12T19:11:01.661Z,73.63
2023-05-12T19:13:33.397Z,73.65
2023-05-12T19:16:04.128Z,73.40
2023-05-12T19:18:34.765Z,73.31
2023-05-12T19:21:09.335Z,73.55
2023-05-12T19:23:41.408Z,73.55
2023-05-12T19:26:15.241Z,73.74
2023-05-12T19:28:47.669Z,73.71
2023-05-12T19:31:24.120Z,73.67
2023-05-12T19:33:56.633Z,73.88
2023-05-12T19:36:30.144Z,74.05
2023-05-12T19:39:01.414Z,74.32
2023-05-12T19:41:41.347Z,74.66
2023-05-12T19:44:15.477Z,74.75
2023-05-12T19:47:02.908Z,75.00
2023-05-12T19:49:42.147Z,74.88
2023-05-12T19:52:30.211Z,74.91
2023-05-12T19:55:15.662Z,74.97
2023-05-12T19:57:54.422Z,74.92
2023-05-12T20:00:29.186Z,74.76
2023-05-12T20:03:06.304Z,74.58
2023-05-12T20:05:40.009Z,74.36
2023-05-12T20:08:13.568Z,74.20
2023-05-12T20:10:47.773Z,73.80
2023-05-12T20:13:24.670Z,74.10
2023-05-12T20:15:56.704Z,74.10
2023-05-12T20:18:31.304Z,73.96
2023-05-12T20:21:03.641Z,73.80
2023-05-12T20:23:42.685Z,73.97
2023-05-12T20:26:18.505Z,74.00
2023-05-12T20:28:54.476Z,74.16
2023-05-12T20:31:26.137Z,74.11
2023-05-12T20:34:02.856Z,74.28
2023-05-12T20:36:33.432Z,74.40
2023-05-12T20:39:09.550Z,74.46
2023-05-12T20:41:42.891Z,74.53
2023-05-12T20:44:14.517Z,74.82
2023-05-12T20:46:46.800Z,74.61
2023-05-12T20:49:21.192Z,74.66
2023-05-12T20:51:51.727Z,74.71
2023-05-12T20:54:22.444Z,74.64
2023-05-12T20:56:52.750Z,74.54
2023-05-12T20:59:24.520Z,74.64
2023-05-12T21:01:56.450Z,74.48
2023-05-12T21:04:32.067Z,74.17
2023-05-12T21:07:02.991Z,74.06
2023-05-12T21:09:35.228Z,73.96
2023-05-12T21:12:07.348Z,73.98
2023-05-12T21:14:41.367Z,73.71
2023-05-12T21:17:16.414Z,73.84
2023-05-12T21:19:47.005Z,73.78
2023-05-12T21:22:20.313Z,73.74
2023-05-12T21:24:52.196Z,73.83
2023-05-12T21:27:23.206Z,73.99
2023-05-12T21:30:00.899Z,73.75
2023-05-12T21:35:23.670Z,73.80
2023-05-12T21:37:56.186Z,73.68
2023-05-12T21:40:27.477Z,73.56
2023-05-12T21:42:58.790Z,73.64
2023-05-12T21:45:29.364Z,73.59
2023-05-12T21:47:59.953Z,73.67
2023-05-12T21:50:30.705Z,73.80
2023-05-12T21:53:03.535Z,73.85
2023-05-12T21:55:34.603Z,73.88
2023-05-12T21:58:05.836Z,74.00
2023-05-12T22:00:36.949Z,74.09
2023-05-12T22:03:08.837Z,74.02
2023-05-12T22:05:42.818Z,74.03
2023-05-12T22:08:13.832Z,74.02
2023-05-12T22:10:48.631Z,74.09
2023-05-12T22:13:21.829Z,74.07
2023-05-12T22:15:55.392Z,73.86
2023-05-12T22:18:27.361Z,73.77
2023-05-12T22:20:59.038Z,73.62
2023-05-12T22:23:35.199Z,73.36
2023-05-12T22:26:07.517Z,73.35
2023-05-12T22:28:37.978Z,73.48
2023-05-12T22:31:10.927Z,73.32
2023-05-12T22:33:51.593Z,73.36
2023-05-12T22:36:21.847Z,73.12
2023-05-12T22:38:57.998Z,73.02
2023-05-12T22:41:30.928Z,73.03
2023-05-12T22:44:01.480Z,72.65
2023-05-12T22:46:31.970Z,72.43
2023-05-12T22:49:02.137Z,72.24
2023-05-12T22:51:32.445Z,72.18
2023-05-12T22:54:02.808Z,72.03
2023-05-12T22:56:33.049Z,71.98
2023-05-12T22:59:03.475Z,72.11
2023-05-12T23:01:34.372Z,71.89
2023-05-12T23:04:05.172Z,71.87
2023-05-12T23:06:37.351Z,71.83
2023-05-12T23:09:09.600Z,71.88
2023-05-12T23:11:40.500Z,71.69
2023-05-12T23:14:11.770Z,71.72
2023-05-12T23:16:42.030Z,71.75
2023-05-12T23:19:12.655Z,71.63
2023-05-12T23:21:43.363Z,71.63
2023-05-12T23:24:13.849Z,71.73
2023-05-12T23:26:44.246Z,71.77
2023-05-12T23:29:15.209Z,71.83
2023-05-12T23:31:45.812Z,71.81
2023-05-12T23:34:16.296Z,71.80
2023-05-12T23:36:46.466Z,72.09
2023-05-12T23:39:17.081Z,72.21
2023-05-12T23:41:47.421Z,72.31
2023-05-12T23:44:17.984Z,72.34
2023-05-12T23:46:48.618Z,72.17
2023-05-12T23:49:18.854Z,72.15
2023-05-12T23:51:49.281Z,72.05
2023-05-12T23:54:19.982Z,72.07
2023-05-12T23:56:50.908Z,72.11
2023-05-12T23:59:21.225Z,72.17
